createdAt,value
2023-03-31T00:00:21.117Z,18.00
2023-03-31T00:02:51.795Z,16.38
2023-03-31T00:05:26.236Z,19.48
2023-03-31T00:08:02.626Z,17.03
2023-03-31T00:10:35.246Z,13.60
2023-03-31T00:13:06.461Z,11.85
2023-03-31T00:15:36.975Z,12.02
2023-03-31T00:18:08.175Z,11.15
2023-03-31T00:20:39.560Z,15.57
2023-03-31T00:23:12.133Z,12.68
2023-03-31T00:25:43.375Z,18.38
2023-03-31T00:28:13.727Z,21.73
2023-03-31T00:30:45.543Z,24.23
2023-03-31T00:33:16.503Z,20.13
2023-03-31T00:35:47.563Z,19.92
2023-03-31T00:38:18.382Z,17.08
2023-03-31T00:40:53.811Z,18.25
2023-03-31T00:43:39.721Z,14.63
2023-03-31T00:46:24.922Z,16.00
2023-03-31T00:49:00.597Z,15.70
2023-03-31T00:51:37.143Z,15.13
2023-03-31T00:54:09.985Z,14.55
2023-03-31T00:56:45.787Z,17.63
2023-03-31T00:59:17.967Z,12.75
2023-03-31T01:01:52.036Z,9.97
2023-03-31T01:04:25.570Z,13.10
2023-03-31T01:07:37.576Z,12.27
2023-03-31T01:10:11.966Z,10.10
2023-03-31T01:12:49.916Z,11.15
2023-03-31T01:15:21.288Z,11.68
2023-03-31T01:17:59.343Z,11.05
2023-03-31T01:20:53.832Z,8.95
2023-03-31T01:23:33.481Z,8.05
2023-03-31T01:30:50.220Z,6.80
2023-03-31T01:33:53.331Z,9.02
2023-03-31T01:37:00.497Z,7.95
2023-03-31T01:40:15.992Z,6.95
2023-03-31T01:43:24.922Z,7.18
2023-03-31T01:46:08.391Z,5.38
2023-03-31T01:52:28.248Z,10.57
2023-03-31T01:55:55.180Z,14.02
2023-03-31T01:58:47.969Z,27.30
2023-03-31T02:01:30.189Z,21.55
2023-03-31T02:04:31.810Z,27.75
2023-03-31T02:07:14.910Z,24.40
2023-03-31T02:09:58.883Z,27.63
2023-03-31T02:12:33.319Z,30.83
2023-03-31T02:15:07.839Z,27.30
2023-03-31T02:17:43.753Z,25.48
2023-03-31T02:20:20.541Z,25.88
2023-03-31T02:22:59.496Z,25.08
2023-03-31T02:25:43.632Z,28.92
2023-03-31T02:28:32.523Z,32.90
2023-03-31T02:31:10.923Z,28.15
2023-03-31T02:33:43.883Z,25.17
2023-03-31T02:36:17.432Z,25.92
2023-03-31T02:39:10.806Z,28.30
2023-03-31T02:41:44.078Z,23.52
2023-03-31T02:44:15.368Z,25.30
2023-03-31T02:46:47.010Z,26.23
2023-03-31T02:49:20.474Z,23.17
2023-03-31T02:52:18.048Z,20.95
2023-03-31T02:55:13.025Z,22.15
2023-03-31T02:57:55.576Z,21.55
2023-03-31T03:03:28.191Z,20.48
2023-03-31T03:06:10.603Z,18.52
2023-03-31T03:08:51.954Z,22.02
2023-03-31T03:11:41.039Z,20.17
2023-03-31T03:14:44.803Z,18.42
2023-03-31T03:17:34.300Z,17.65
2023-03-31T03:20:11.114Z,15.32
2023-03-31T03:22:42.729Z,16.50
2023-03-31T03:25:16.416Z,16.65
2023-03-31T03:27:47.745Z,12.05
2023-03-31T03:30:18.578Z,17.58
2023-03-31T03:32:49.457Z,15.90
2023-03-31T03:35:25.871Z,15.68
2023-03-31T03:37:59.324Z,13.15
2023-03-31T03:40:31.223Z,16.73
2023-03-31T03:43:01.661Z,14.25
2023-03-31T03:45:33.062Z,17.10
2023-03-31T03:48:03.466Z,15.18
2023-03-31T03:50:37.603Z,17.48
2023-03-31T03:53:08.027Z,11.63
2023-03-31T03:55:38.799Z,8.95
2023-03-31T03:58:10.569Z,11.73
2023-03-31T04:00:44.315Z,10.43
2023-03-31T04:03:18.222Z,10.13
2023-03-31T04:05:57.129Z,6.22
2023-03-31T04:08:35.565Z,8.32
2023-03-31T04:11:23.177Z,4.97
2023-03-31T04:14:00.788Z,7.90
2023-03-31T04:16:40.155Z,7.05
2023-03-31T04:19:23.567Z,4.88
2023-03-31T04:22:08.450Z,5.38
2023-03-31T04:24:47.068Z,6.00
2023-03-31T04:27:18.744Z,5.90
2023-03-31T04:30:01.621Z,6.68
2023-03-31T04:32:38.203Z,5.10
2023-03-31T04:35:16.943Z,4.28
2023-03-31T04:38:00.231Z,10.02
2023-03-31T04:40:40.594Z,8.13
2023-03-31T04:43:17.303Z,18.50
2023-03-31T04:45:55.811Z,12.70
2023-03-31T04:48:37.269Z,17.45
2023-03-31T04:51:20.671Z,18.05
2023-03-31T04:53:53.159Z,18.80
2023-03-31T04:56:32.642Z,21.10
2023-03-31T04:59:06.938Z,19.67
2023-03-31T05:01:50.163Z,16.52
2023-03-31T05:04:26.528Z,28.95
2023-03-31T05:07:12.568Z,44.22
2023-03-31T05:09:47.302Z,101.85
2023-03-31T05:14:53.697Z,79.72
2023-03-31T05:17:29.157Z,68.43
2023-03-31T05:20:02.122Z,76.50
2023-03-31T05:22:38.676Z,50.40
2023-03-31T05:25:23.636Z,46.30
2023-03-31T05:27:58.679Z,49.75
2023-03-31T05:30:36.911Z,50.42
2023-03-31T05:33:14.305Z,36.83
2023-03-31T05:35:51.082Z,43.03
2023-03-31T05:38:30.161Z,36.08
2023-03-31T05:41:06.049Z,36.65
2023-03-31T05:43:46.260Z,33.63
2023-03-31T05:46:16.948Z,34.72
2023-03-31T05:48:55.692Z,37.50
2023-03-31T05:51:38.533Z,35.05
2023-03-31T05:54:14.992Z,40.95
2023-03-31T05:56:56.169Z,41.85
2023-03-31T05:59:32.594Z,44.85
2023-03-31T06:02:49.697Z,46.47
2023-03-31T06:05:46.876Z,42.38
2023-03-31T06:08:26.856Z,44.30
2023-03-31T06:11:06.194Z,38.13
2023-03-31T06:13:41.700Z,36.05
2023-03-31T06:16:25.844Z,34.30
2023-03-31T06:21:30.837Z,35.63
2023-03-31T06:24:03.915Z,32.95
2023-03-31T06:26:40.135Z,30.02
2023-03-31T06:29:14.627Z,25.08
2023-03-31T06:31:47.597Z,26.52
2023-03-31T06:34:21.941Z,23.65
2023-03-31T06:36:53.405Z,17.23
2023-03-31T06:39:29.617Z,19.73
2023-03-31T06:42:04.851Z,19.65
2023-03-31T06:44:42.350Z,16.83
2023-03-31T06:47:17.807Z,20.48
2023-03-31T06:49:52.230Z,17.13
2023-03-31T06:52:25.254Z,17.53
2023-03-31T06:54:58.436Z,14.38
2023-03-31T06:57:36.822Z,14.50
2023-03-31T07:00:12.618Z,17.35
2023-03-31T07:02:46.911Z,15.00
2023-03-31T07:05:21.067Z,13.23
2023-03-31T07:07:54.720Z,11.73
2023-03-31T07:10:31.854Z,14.85
2023-03-31T07:13:05.824Z,24.38
2023-03-31T07:15:40.061Z,12.98
2023-03-31T07:18:14.095Z,16.38
2023-03-31T07:20:51.993Z,13.68
2023-03-31T07:23:25.489Z,20.40
2023-03-31T07:25:57.277Z,13.30
2023-03-31T07:28:28.776Z,15.73
2023-03-31T07:31:00.842Z,13.70
2023-03-31T07:33:34.679Z,11.05
2023-03-31T07:36:13.337Z,15.70
2023-03-31T07:38:50.891Z,14.77
2023-03-31T07:41:24.756Z,12.90
2023-03-31T07:43:56.849Z,12.75
2023-03-31T07:46:30.259Z,14.15
2023-03-31T07:49:03.964Z,14.23
2023-03-31T07:51:35.636Z,15.38
2023-03-31T07:54:09.811Z,17.40
2023-03-31T07:56:42.885Z,12.73
2023-03-31T07:59:15.985Z,14.73
2023-03-31T08:01:46.496Z,10.73
2023-03-31T08:04:20.334Z,11.90
2023-03-31T08:06:53.148Z,10.88
2023-03-31T08:09:28.529Z,11.68
2023-03-31T08:11:59.799Z,14.63
2023-03-31T08:14:40.392Z,12.80
2023-03-31T08:17:14.129Z,10.77
2023-03-31T08:19:46.745Z,12.25
2023-03-31T08:22:19.276Z,12.93
2023-03-31T08:24:51.449Z,13.80
2023-03-31T08:27:22.455Z,10.60
2023-03-31T08:29:53.232Z,11.95
2023-03-31T08:32:30.340Z,14.85
2023-03-31T08:35:01.150Z,14.75
2023-03-31T08:37:34.676Z,12.73
2023-03-31T08:40:07.162Z,12.95
2023-03-31T08:42:58.322Z,13.07
2023-03-31T08:45:39.398Z,10.30
2023-03-31T08:48:19.688Z,15.20
2023-03-31T08:51:13.408Z,14.90
2023-03-31T08:53:54.730Z,10.13
2023-03-31T08:56:27.976Z,14.18
2023-03-31T08:59:03.623Z,10.88
2023-03-31T09:01:59.637Z,12.77
2023-03-31T09:04:53.184Z,10.02
2023-03-31T09:08:01.395Z,13.25
2023-03-31T09:10:45.663Z,14.23
2023-03-31T09:13:22.062Z,10.25
2023-03-31T09:16:07.547Z,9.68
2023-03-31T09:18:40.372Z,13.32
2023-03-31T09:21:16.670Z,10.32
2023-03-31T09:24:01.350Z,11.55
2023-03-31T09:26:55.115Z,10.20
2023-03-31T09:29:46.326Z,10.75
2023-03-31T09:32:30.157Z,9.77
2023-03-31T09:35:27.190Z,9.52
2023-03-31T09:37:58.687Z,9.40
2023-03-31T09:40:30.883Z,11.70
2023-03-31T09:43:13.181Z,7.00
2023-03-31T09:45:46.207Z,10.90
2023-03-31T09:48:37.690Z,8.18
2023-03-31T09:51:16.904Z,11.35
2023-03-31T09:53:55.301Z,8.20
2023-03-31T09:56:57.805Z,8.23
2023-03-31T09:59:37.553Z,10.50
2023-03-31T10:02:42.202Z,10.05
2023-03-31T10:07:52.035Z,14.85
2023-03-31T10:10:35.482Z,17.58
2023-03-31T10:15:42.378Z,34.55
2023-03-31T10:18:21.806Z,32.65
2023-03-31T10:20:54.584Z,24.00
2023-03-31T10:23:33.854Z,21.73
2023-03-31T10:26:05.993Z,30.35
2023-03-31T10:28:38.767Z,32.60
2023-03-31T10:31:10.213Z,29.27
2023-03-31T10:33:47.493Z,31.65
2023-03-31T10:36:31.237Z,24.95
2023-03-31T10:39:01.897Z,21.90
2023-03-31T10:41:33.660Z,33.88
2023-03-31T10:44:06.615Z,29.35
2023-03-31T10:46:50.312Z,31.35
2023-03-31T10:49:23.675Z,26.65
2023-03-31T10:52:04.954Z,26.88
2023-03-31T10:54:35.923Z,26.23
2023-03-31T10:57:08.899Z,26.27
2023-03-31T11:00:07.223Z,24.95
2023-03-31T11:02:56.237Z,32.10
2023-03-31T11:05:38.531Z,30.65
2023-03-31T11:08:37.439Z,28.58
2023-03-31T11:11:19.448Z,24.20
2023-03-31T11:14:23.017Z,28.92
2023-03-31T11:17:21.524Z,30.08
2023-03-31T11:20:03.872Z,24.48
2023-03-31T11:22:40.383Z,28.77
2023-03-31T11:25:31.397Z,23.50
2023-03-31T11:28:07.739Z,25.33
2023-03-31T11:30:52.061Z,30.85
2023-03-31T11:33:44.197Z,23.17
2023-03-31T11:36:43.125Z,22.75
2023-03-31T11:39:39.922Z,25.25
2023-03-31T11:42:27.360Z,21.95
2023-03-31T11:45:06.963Z,25.73
2023-03-31T11:47:40.163Z,24.95
2023-03-31T11:50:18.678Z,32.80
2023-03-31T11:53:29.001Z,26.73
2023-03-31T11:56:01.336Z,22.70
2023-03-31T11:58:39.886Z,28.45
2023-03-31T12:01:28.228Z,26.33
2023-03-31T12:04:12.597Z,27.42
2023-03-31T12:06:44.929Z,23.45
2023-03-31T12:09:55.459Z,32.43
2023-03-31T12:12:32.430Z,27.60
2023-03-31T12:15:23.868Z,28.15
2023-03-31T12:18:17.629Z,28.10
2023-03-31T12:20:56.117Z,23.00
2023-03-31T12:23:35.167Z,24.27
2023-03-31T12:26:12.968Z,32.40
2023-03-31T12:28:46.828Z,26.17
2023-03-31T12:31:26.640Z,27.15
2023-03-31T12:34:14.569Z,26.52
2023-03-31T12:36:57.720Z,26.58
2023-03-31T12:39:47.647Z,29.70
2023-03-31T12:42:42.396Z,34.33
2023-03-31T12:45:31.806Z,24.88
2023-03-31T12:48:17.893Z,24.17
2023-03-31T12:51:15.918Z,28.50
2023-03-31T12:54:12.333Z,25.55
2023-03-31T12:57:04.728Z,33.78
2023-03-31T12:59:46.438Z,31.10
2023-03-31T13:02:17.986Z,26.58
2023-03-31T13:04:51.214Z,22.48
2023-03-31T13:07:30.801Z,29.88
2023-03-31T13:10:25.171Z,24.58
2023-03-31T13:13:16.010Z,28.88
2023-03-31T13:15:59.400Z,24.75
2023-03-31T13:18:33.946Z,26.55
2023-03-31T13:21:09.510Z,28.25
2023-03-31T13:23:49.015Z,28.58
2023-03-31T13:26:36.208Z,25.98
2023-03-31T13:29:21.169Z,27.98
2023-03-31T13:32:05.132Z,25.67
2023-03-31T13:34:49.018Z,29.08
2023-03-31T13:37:24.899Z,25.27
2023-03-31T13:40:18.817Z,26.08
2023-03-31T13:42:56.179Z,25.98
2023-03-31T13:45:59.975Z,30.33
2023-03-31T13:48:47.530Z,28.23
2023-03-31T13:52:01.075Z,27.23
2023-03-31T13:55:04.060Z,24.88
2023-03-31T13:57:41.184Z,26.27
2023-03-31T14:00:25.086Z,31.23
2023-03-31T14:03:32.336Z,23.27
2023-03-31T14:06:11.423Z,22.10
2023-03-31T14:08:50.984Z,28.92
2023-03-31T14:11:40.473Z,29.00
2023-03-31T14:14:27.128Z,24.20
2023-03-31T14:17:10.279Z,31.10
2023-03-31T14:19:59.664Z,28.27
2023-03-31T14:22:42.385Z,23.48
2023-03-31T14:25:48.363Z,27.65
2023-03-31T14:28:54.040Z,29.98
2023-03-31T14:31:48.836Z,28.35
2023-03-31T14:34:39.194Z,27.00
2023-03-31T14:37:22.781Z,26.77
2023-03-31T14:40:01.286Z,27.02
2023-03-31T14:42:45.848Z,26.58
2023-03-31T14:45:36.965Z,26.77
2023-03-31T14:48:20.990Z,25.98
2023-03-31T14:50:53.340Z,26.27
2023-03-31T14:53:28.501Z,30.00
2023-03-31T14:56:29.681Z,24.55
2023-03-31T14:59:02.086Z,32.58
2023-03-31T15:01:40.183Z,30.10
2023-03-31T15:04:20.439Z,24.73
2023-03-31T15:06:55.898Z,30.67
2023-03-31T15:09:31.416Z,29.98
2023-03-31T15:12:08.124Z,30.08
2023-03-31T15:14:48.430Z,28.70
2023-03-31T15:17:35.084Z,28.77
2023-03-31T15:20:29.319Z,31.30
2023-03-31T15:23:02.944Z,30.02
2023-03-31T15:25:46.680Z,27.77
2023-03-31T15:28:25.510Z,29.85
2023-03-31T15:31:10.024Z,24.75
2023-03-31T15:33:49.380Z,30.70
2023-03-31T15:36:23.771Z,27.98
2023-03-31T15:39:04.786Z,29.17
2023-03-31T15:41:47.174Z,29.13
2023-03-31T15:44:45.981Z,28.23
2023-03-31T15:47:24.191Z,26.50
2023-03-31T15:50:21.209Z,29.95
2023-03-31T15:53:00.345Z,29.75
2023-03-31T15:55:34.104Z,29.20
2023-03-31T15:58:06.238Z,25.95
2023-03-31T16:01:12.776Z,32.65
2023-03-31T16:03:49.342Z,29.08
2023-03-31T16:06:38.976Z,30.30
2023-03-31T16:09:17.696Z,26.88
2023-03-31T16:12:02.753Z,29.83
2023-03-31T16:14:40.384Z,33.78
2023-03-31T16:17:31.456Z,32.75
2023-03-31T16:20:24.869Z,30.23
2023-03-31T16:23:01.192Z,31.67
2023-03-31T16:25:33.809Z,31.70
2023-03-31T16:28:06.658Z,33.78
2023-03-31T16:30:41.303Z,31.77
2023-03-31T16:33:16.497Z,30.25
2023-03-31T16:35:57.811Z,31.85
2023-03-31T16:38:34.389Z,31.17
2023-03-31T16:41:11.826Z,30.63
2023-03-31T16:43:43.522Z,28.33
2023-03-31T16:46:15.144Z,31.27
2023-03-31T16:48:47.443Z,35.00
2023-03-31T16:51:19.350Z,30.50
2023-03-31T16:53:50.872Z,30.20
2023-03-31T16:56:22.946Z,29.60
2023-03-31T16:58:55.218Z,28.85
2023-03-31T17:01:27.731Z,31.57
2023-03-31T17:04:02.745Z,30.20
2023-03-31T17:06:33.351Z,30.35
2023-03-31T17:09:05.852Z,31.20
2023-03-31T17:11:37.629Z,31.27
2023-03-31T17:14:08.816Z,33.30
2023-03-31T17:16:48.212Z,28.38
2023-03-31T17:19:19.451Z,31.02
2023-03-31T17:21:56.735Z,28.60
2023-03-31T17:24:27.588Z,36.45
2023-03-31T17:26:59.020Z,30.70
2023-03-31T17:29:30.477Z,30.08
2023-03-31T17:32:02.783Z,34.33
2023-03-31T17:34:33.707Z,31.75
2023-03-31T17:37:04.131Z,32.40
2023-03-31T17:39:34.344Z,32.42
2023-03-31T17:42:05.854Z,32.75
2023-03-31T17:44:39.561Z,32.22
2023-03-31T17:47:10.011Z,30.13
2023-03-31T17:49:41.023Z,29.70
2023-03-31T17:52:12.356Z,34.85
2023-03-31T17:54:44.141Z,32.60
2023-03-31T17:57:15.523Z,30.77
2023-03-31T17:59:46.601Z,31.33
2023-03-31T18:02:17.751Z,29.27
2023-03-31T18:04:48.353Z,32.05
2023-03-31T18:07:24.529Z,34.53
2023-03-31T18:09:54.953Z,34.50
2023-03-31T18:12:25.469Z,31.95
2023-03-31T18:14:55.826Z,33.28
2023-03-31T18:17:27.316Z,31.10
2023-03-31T18:20:00.565Z,30.90
2023-03-31T18:22:31.287Z,30.73
2023-03-31T18:25:01.847Z,34.67
2023-03-31T18:27:32.411Z,32.28
2023-03-31T18:30:03.148Z,33.70
2023-03-31T18:32:34.239Z,35.42
2023-03-31T18:35:04.656Z,35.10
2023-03-31T18:37:35.551Z,33.05
2023-03-31T18:40:06.286Z,34.30
2023-03-31T18:42:37.642Z,35.90
2023-03-31T18:45:08.934Z,33.35
2023-03-31T18:47:39.347Z,34.40
2023-03-31T18:50:10.839Z,28.90
2023-03-31T18:52:41.447Z,31.10
2023-03-31T18:55:12.618Z,28.33
2023-03-31T18:57:43.212Z,29.88
2023-03-31T19:00:14.267Z,26.67
2023-03-31T19:02:45.246Z,27.60
2023-03-31T19:05:15.992Z,27.15
2023-03-31T19:07:46.440Z,32.50
2023-03-31T19:10:17.342Z,29.17
2023-03-31T19:12:50.935Z,26.00
2023-03-31T19:15:21.402Z,26.55
2023-03-31T19:17:52.171Z,26.05
2023-03-31T19:20:23.080Z,24.48
2023-03-31T19:22:55.188Z,29.70
2023-03-31T19:25:25.747Z,29.83
2023-03-31T19:27:56.345Z,25.83
2023-03-31T19:30:26.953Z,27.92
2023-03-31T19:32:57.474Z,26.35
2023-03-31T19:35:28.971Z,29.23
2023-03-31T19:38:00.230Z,21.57
2023-03-31T19:40:30.925Z,25.20
2023-03-31T19:43:02.156Z,26.70
2023-03-31T19:45:32.739Z,22.73
2023-03-31T19:48:03.119Z,24.73
2023-03-31T19:50:33.648Z,23.10
2023-03-31T19:53:04.216Z,22.17
2023-03-31T19:55:38.884Z,22.20
2023-03-31T19:58:09.460Z,26.08
2023-03-31T20:00:41.199Z,25.65
2023-03-31T20:03:12.119Z,22.92
2023-03-31T20:05:42.800Z,25.02
2023-03-31T20:08:13.188Z,23.60
2023-03-31T20:10:44.610Z,25.42
2023-03-31T20:13:15.069Z,28.58
2023-03-31T20:15:45.326Z,27.10
2023-03-31T20:18:15.710Z,25.08
2023-03-31T20:20:47.195Z,24.40
2023-03-31T20:23:17.720Z,27.25
2023-03-31T20:25:48.385Z,26.00
2023-03-31T20:28:19.291Z,27.10
2023-03-31T20:30:49.686Z,26.17
2023-03-31T20:33:19.914Z,28.20
2023-03-31T20:35:50.769Z,28.88
2023-03-31T20:38:21.344Z,29.63
2023-03-31T20:40:51.558Z,24.40
2023-03-31T20:43:22.054Z,30.00
2023-03-31T20:45:59.444Z,29.58
2023-03-31T20:48:29.841Z,27.73
2023-03-31T20:51:00.429Z,26.83
2023-03-31T20:53:30.857Z,27.77
2023-03-31T20:56:01.262Z,27.63
2023-03-31T20:58:31.685Z,33.17
2023-03-31T21:01:02.443Z,34.08
2023-03-31T21:03:32.978Z,29.10
2023-03-31T21:06:06.099Z,33.60
2023-03-31T21:08:49.120Z,32.33
2023-03-31T21:11:20.301Z,31.45
2023-03-31T21:13:51.013Z,28.13
2023-03-31T21:16:22.158Z,30.85
2023-03-31T21:18:53.341Z,31.15
2023-03-31T21:21:25.950Z,39.88
2023-03-31T21:23:57.183Z,30.90
2023-03-31T21:26:28.634Z,36.65
2023-03-31T21:28:59.470Z,31.80
2023-03-31T21:31:30.326Z,32.47
2023-03-31T21:34:02.804Z,30.73
2023-03-31T21:36:33.265Z,39.33
2023-03-31T21:39:05.718Z,36.45
2023-03-31T21:41:36.384Z,32.47
2023-03-31T21:44:08.014Z,29.35
2023-03-31T21:46:38.639Z,31.08
2023-03-31T21:49:09.396Z,29.67
2023-03-31T21:51:40.036Z,29.15
2023-03-31T21:54:10.433Z,32.95
2023-03-31T21:56:41.033Z,30.40
2023-03-31T21:59:11.447Z,33.97
2023-03-31T22:01:43.030Z,34.90
2023-03-31T22:04:14.780Z,33.28
2023-03-31T22:06:45.173Z,28.02
2023-03-31T22:09:16.825Z,30.20
2023-03-31T22:11:47.610Z,25.33
2023-03-31T22:14:18.312Z,30.08
2023-03-31T22:16:49.496Z,30.25
2023-03-31T22:19:20.530Z,28.92
2023-03-31T22:21:51.546Z,30.95
2023-03-31T22:24:21.973Z,28.77
2023-03-31T22:26:52.428Z,27.58
2023-03-31T22:29:23.030Z,28.90
2023-03-31T22:31:53.717Z,27.73
2023-03-31T22:34:24.183Z,28.92
2023-03-31T22:36:54.533Z,28.27
2023-03-31T22:39:25.221Z,24.95
2023-03-31T22:41:55.924Z,29.20
2023-03-31T22:44:26.485Z,28.42
2023-03-31T22:46:57.384Z,27.90
2023-03-31T22:49:28.029Z,28.70
2023-03-31T22:51:58.615Z,26.80
2023-03-31T22:54:29.193Z,32.90
2023-03-31T22:57:00.236Z,27.67
2023-03-31T22:59:30.739Z,29.55
2023-03-31T23:02:01.153Z,29.55
2023-03-31T23:04:31.603Z,28.48
2023-03-31T23:07:02.364Z,31.38
2023-03-31T23:09:33.405Z,27.77
2023-03-31T23:12:03.813Z,31.95
2023-03-31T23:14:34.427Z,29.85
2023-03-31T23:17:04.710Z,31.27
2023-03-31T23:19:35.191Z,27.02
2023-03-31T23:22:07.326Z,29.90
2023-03-31T23:24:38.417Z,30.92
2023-03-31T23:27:08.880Z,30.17
2023-03-31T23:29:39.468Z,27.33
2023-03-31T23:32:10.090Z,27.83
2023-03-31T23:34:45.017Z,28.90
2023-03-31T23:37:17.191Z,29.17
2023-03-31T23:39:48.393Z,28.75
2023-03-31T23:42:22.021Z,35.53
2023-03-31T23:44:53.624Z,42.72
2023-03-31T23:47:24.435Z,63.75
2023-03-31T23:49:55.749Z,299.85
2023-03-31T23:52:26.418Z,138.85
2023-03-31T23:54:57.133Z,105.15
2023-03-31T23:57:27.648Z,285.27
2023-03-31T23:59:58.037Z,160.18
